sensor_id;sensor_type;location;lat;lon;timestamp;P1;durP1;ratioP1;P2;durP2;ratioP2
46729;SDS011;32476;50.002;11.854;2023-08-12T00:00:05;10.40;;;3.40;;
46729;SDS011;32476;50.002;11.854;2023-08-12T00:02:43;3.90;;;3.20;;
46729;SDS011;32476;50.002;11.854;2023-08-12T00:05:11;6.60;;;3.53;;
46729;SDS011;32476;50.002;11.854;2023-08-12T00:07:38;3.40;;;3.00;;
46729;SDS011;32476;50.002;11.854;2023-08-12T00:10:09;3.83;;;3.30;;
46729;SDS011;32476;50.002;11.854;2023-08-12T00:12:38;4.43;;;3.27;;
46729;SDS011;32476;50.002;11.854;2023-08-12T00:15:05;8.30;;;3.50;;
46729;SDS011;32476;50.002;11.854;2023-08-12T00:17:33;5.33;;;3.50;;
46729;SDS011;32476;50.002;11.854;2023-08-12T00:20:04;8.50;;;3.27;;
46729;SDS011;32476;50.002;11.854;2023-08-12T00:22:32;6.23;;;3.73;;
46729;SDS011;32476;50.002;11.854;2023-08-12T00:24:57;4.40;;;3.30;;
46729;SDS011;32476;50.002;11.854;2023-08-12T00:27:25;6.73;;;3.20;;
46729;SDS011;32476;50.002;11.854;2023-08-12T00:29:51;3.70;;;3.30;;
46729;SDS011;32476;50.002;11.854;2023-08-12T00:32:17;4.43;;;3.40;;
46729;SDS011;32476;50.002;11.854;2023-08-12T00:34:44;8.47;;;3.13;;
46729;SDS011;32476;50.002;11.854;2023-08-12T00:37:10;7.20;;;3.43;;
46729;SDS011;32476;50.002;11.854;2023-08-12T00:39:36;3.80;;;3.40;;
46729;SDS011;32476;50.002;11.854;2023-08-12T00:42:04;6.43;;;3.57;;
46729;SDS011;32476;50.002;11.854;2023-08-12T00:44:30;5.57;;;3.47;;
46729;SDS011;32476;50.002;11.854;2023-08-12T00:46:55;4.30;;;3.37;;
46729;SDS011;32476;50.002;11.854;2023-08-12T00:49:23;4.00;;;3.23;;
46729;SDS011;32476;50.002;11.854;2023-08-12T00:51:50;5.80;;;3.13;;
46729;SDS011;32476;50.002;11.854;2023-08-12T00:54:18;6.17;;;3.53;;
46729;SDS011;32476;50.002;11.854;2023-08-12T00:56:50;4.07;;;3.53;;
46729;SDS011;32476;50.002;11.854;2023-08-12T00:59:19;5.13;;;3.50;;
46729;SDS011;32476;50.002;11.854;2023-08-12T01:01:46;5.57;;;3.30;;
46729;SDS011;32476;50.002;11.854;2023-08-12T01:04:14;4.00;;;3.10;;
46729;SDS011;32476;50.002;11.854;2023-08-12T01:06:40;4.97;;;3.23;;
46729;SDS011;32476;50.002;11.854;2023-08-12T01:09:06;5.50;;;3.40;;
46729;SDS011;32476;50.002;11.854;2023-08-12T01:14:28;6.07;;;3.47;;
46729;SDS011;32476;50.002;11.854;2023-08-12T01:17:24;5.63;;;3.33;;
46729;SDS011;32476;50.002;11.854;2023-08-12T01:19:54;5.47;;;3.80;;
46729;SDS011;32476;50.002;11.854;2023-08-12T01:22:21;5.43;;;3.23;;
46729;SDS011;32476;50.002;11.854;2023-08-12T01:24:52;3.97;;;3.00;;
46729;SDS011;32476;50.002;11.854;2023-08-12T01:27:18;3.80;;;3.40;;
46729;SDS011;32476;50.002;11.854;2023-08-12T01:29:49;6.27;;;3.67;;
46729;SDS011;32476;50.002;11.854;2023-08-12T01:32:23;5.10;;;3.40;;
46729;SDS011;32476;50.002;11.854;2023-08-12T01:38:14;5.53;;;3.20;;
46729;SDS011;32476;50.002;11.854;2023-08-12T01:40:41;5.57;;;3.37;;
46729;SDS011;32476;50.002;11.854;2023-08-12T01:43:09;6.07;;;3.67;;
46729;SDS011;32476;50.002;11.854;2023-08-12T01:45:37;6.50;;;3.83;;
46729;SDS011;32476;50.002;11.854;2023-08-12T01:48:04;3.67;;;3.10;;
46729;SDS011;32476;50.002;11.854;2023-08-12T01:50:30;5.50;;;3.37;;
46729;SDS011;32476;50.002;11.854;2023-08-12T01:52:58;5.80;;;3.40;;
46729;SDS011;32476;50.002;11.854;2023-08-12T01:55:24;7.20;;;3.80;;
46729;SDS011;32476;50.002;11.854;2023-08-12T01:57:51;7.27;;;3.77;;
46729;SDS011;32476;50.002;11.854;2023-08-12T02:00:19;6.50;;;3.83;;
46729;SDS011;32476;50.002;11.854;2023-08-12T02:02:45;6.00;;;3.90;;
46729;SDS011;32476;50.002;11.854;2023-08-12T02:05:12;6.07;;;3.67;;
46729;SDS011;32476;50.002;11.854;2023-08-12T02:07:43;6.03;;;3.40;;
46729;SDS011;32476;50.002;11.854;2023-08-12T02:10:09;3.87;;;3.23;;
46729;SDS011;32476;50.002;11.854;2023-08-12T02:12:35;6.23;;;3.70;;
46729;SDS011;32476;50.002;11.854;2023-08-12T02:15:02;5.83;;;3.50;;
46729;SDS011;32476;50.002;11.854;2023-08-12T02:17:28;9.93;;;3.93;;
46729;SDS011;32476;50.002;11.854;2023-08-12T02:19:54;3.70;;;3.27;;
46729;SDS011;32476;50.002;11.854;2023-08-12T02:22:22;3.90;;;3.43;;
46729;SDS011;32476;50.002;11.854;2023-08-12T02:24:48;5.40;;;3.40;;
46729;SDS011;32476;50.002;11.854;2023-08-12T02:27:14;9.80;;;3.80;;
46729;SDS011;32476;50.002;11.854;2023-08-12T02:29:41;10.90;;;7.47;;
46729;SDS011;32476;50.002;11.854;2023-08-12T02:32:07;8.43;;;5.30;;
46729;SDS011;32476;50.002;11.854;2023-08-12T02:34:33;7.40;;;4.60;;
46729;SDS011;32476;50.002;11.854;2023-08-12T02:37:01;7.53;;;3.50;;
46729;SDS011;32476;50.002;11.854;2023-08-12T02:39:27;5.83;;;3.63;;
46729;SDS011;32476;50.002;11.854;2023-08-12T02:41:54;3.50;;;3.17;;
46729;SDS011;32476;50.002;11.854;2023-08-12T02:44:22;5.20;;;3.63;;
46729;SDS011;32476;50.002;11.854;2023-08-12T02:46:47;3.90;;;3.27;;
46729;SDS011;32476;50.002;11.854;2023-08-12T02:49:13;5.07;;;3.77;;
46729;SDS011;32476;50.002;11.854;2023-08-12T02:51:41;3.77;;;3.37;;
46729;SDS011;32476;50.002;11.854;2023-08-12T02:54:07;4.63;;;3.40;;
46729;SDS011;32476;50.002;11.854;2023-08-12T02:56:33;8.57;;;3.63;;
46729;SDS011;32476;50.002;11.854;2023-08-12T02:59:00;4.03;;;3.47;;
46729;SDS011;32476;50.002;11.854;2023-08-12T03:01:26;4.03;;;3.50;;
46729;SDS011;32476;50.002;11.854;2023-08-12T03:03:52;5.13;;;3.93;;
46729;SDS011;32476;50.002;11.854;2023-08-12T03:06:20;14.23;;;5.80;;
46729;SDS011;32476;50.002;11.854;2023-08-12T03:08:46;5.13;;;3.80;;
46729;SDS011;32476;50.002;11.854;2023-08-12T03:11:12;4.27;;;3.60;;
46729;SDS011;32476;50.002;11.854;2023-08-12T03:13:39;7.90;;;3.37;;
46729;SDS011;32476;50.002;11.854;2023-08-12T03:16:10;8.80;;;4.03;;
46729;SDS011;32476;50.002;11.854;2023-08-12T03:18:40;5.63;;;3.63;;
46729;SDS011;32476;50.002;11.854;2023-08-12T03:21:09;7.60;;;3.30;;
46729;SDS011;32476;50.002;11.854;2023-08-12T03:23:35;6.37;;;3.53;;
46729;SDS011;32476;50.002;11.854;2023-08-12T03:26:04;3.87;;;3.30;;
46729;SDS011;32476;50.002;11.854;2023-08-12T03:28:30;4.40;;;3.67;;
46729;SDS011;32476;50.002;11.854;2023-08-12T03:30:56;4.43;;;3.40;;
46729;SDS011;32476;50.002;11.854;2023-08-12T03:33:24;6.67;;;3.63;;
46729;SDS011;32476;50.002;11.854;2023-08-12T03:35:50;6.87;;;3.77;;
46729;SDS011;32476;50.002;11.854;2023-08-12T03:38:16;4.27;;;3.40;;
46729;SDS011;32476;50.002;11.854;2023-08-12T03:40:44;6.30;;;3.40;;
46729;SDS011;32476;50.002;11.854;2023-08-12T03:43:10;5.63;;;3.53;;
46729;SDS011;32476;50.002;11.854;2023-08-12T03:45:39;7.00;;;3.23;;
46729;SDS011;32476;50.002;11.854;2023-08-12T03:48:08;3.53;;;3.23;;
46729;SDS011;32476;50.002;11.854;2023-08-12T03:50:35;5.70;;;3.60;;
46729;SDS011;32476;50.002;11.854;2023-08-12T03:53:02;7.37;;;3.13;;
46729;SDS011;32476;50.002;11.854;2023-08-12T03:55:31;3.47;;;3.17;;
46729;SDS011;32476;50.002;11.854;2023-08-12T03:57:58;6.17;;;3.50;;
46729;SDS011;32476;50.002;11.854;2023-08-12T04:00:25;9.53;;;6.00;;
46729;SDS011;32476;50.002;11.854;2023-08-12T04:02:53;80.47;;;48.67;;
46729;SDS011;32476;50.002;11.854;2023-08-12T04:05:19;25.93;;;14.80;;
46729;SDS011;32476;50.002;11.854;2023-08-12T04:07:45;17.77;;;11.07;;
46729;SDS011;32476;50.002;11.854;2023-08-12T04:10:13;10.53;;;5.97;;
46729;SDS011;32476;50.002;11.854;2023-08-12T04:12:39;6.77;;;4.47;;
46729;SDS011;32476;50.002;11.854;2023-08-12T04:15:07;9.13;;;4.67;;
46729;SDS011;32476;50.002;11.854;2023-08-12T04:17:35;12.33;;;4.30;;
46729;SDS011;32476;50.002;11.854;2023-08-12T04:20:01;7.03;;;3.67;;
46729;SDS011;32476;50.002;11.854;2023-08-12T04:22:31;6.17;;;3.37;;
46729;SDS011;32476;50.002;11.854;2023-08-12T04:24:58;6.27;;;3.63;;
46729;SDS011;32476;50.002;11.854;2023-08-12T04:27:24;8.43;;;4.73;;
46729;SDS011;32476;50.002;11.854;2023-08-12T04:29:50;4.43;;;3.40;;
46729;SDS011;32476;50.002;11.854;2023-08-12T04:32:17;4.90;;;3.40;;
46729;SDS011;32476;50.002;11.854;2023-08-12T04:34:44;6.97;;;3.97;;
46729;SDS011;32476;50.002;11.854;2023-08-12T04:37:11;6.40;;;3.27;;
46729;SDS011;32476;50.002;11.854;2023-08-12T04:39:38;5.93;;;3.40;;
46729;SDS011;32476;50.002;11.854;2023-08-12T04:42:05;5.00;;;3.13;;
46729;SDS011;32476;50.002;11.854;2023-08-12T04:44:31;4.17;;;3.60;;
46729;SDS011;32476;50.002;11.854;2023-08-12T04:46:58;3.67;;;3.33;;
46729;SDS011;32476;50.002;11.854;2023-08-12T04:49:24;5.30;;;4.00;;
46729;SDS011;32476;50.002;11.854;2023-08-12T04:51:51;6.47;;;3.37;;
46729;SDS011;32476;50.002;11.854;2023-08-12T04:54:19;11.87;;;3.60;;
46729;SDS011;32476;50.002;11.854;2023-08-12T04:56:46;8.30;;;4.30;;
46729;SDS011;32476;50.002;11.854;2023-08-12T04:59:12;8.37;;;3.77;;
46729;SDS011;32476;50.002;11.854;2023-08-12T05:01:39;4.47;;;3.57;;
46729;SDS011;32476;50.002;11.854;2023-08-12T05:04:05;7.17;;;3.80;;
46729;SDS011;32476;50.002;11.854;2023-08-12T05:06:31;7.27;;;3.37;;
46729;SDS011;32476;50.002;11.854;2023-08-12T05:08:58;3.70;;;3.10;;
46729;SDS011;32476;50.002;11.854;2023-08-12T05:11:24;8.00;;;3.93;;
46729;SDS011;32476;50.002;11.854;2023-08-12T05:13:50;6.97;;;4.07;;
46729;SDS011;32476;50.002;11.854;2023-08-12T05:16:18;5.27;;;3.50;;
46729;SDS011;32476;50.002;11.854;2023-08-12T05:18:44;4.83;;;3.40;;
46729;SDS011;32476;50.002;11.854;2023-08-12T05:21:10;5.30;;;3.40;;
46729;SDS011;32476;50.002;11.854;2023-08-12T05:23:37;3.50;;;3.13;;
46729;SDS011;32476;50.002;11.854;2023-08-12T05:26:03;3.47;;;3.00;;
46729;SDS011;32476;50.002;11.854;2023-08-12T05:28:29;3.37;;;2.87;;
46729;SDS011;32476;50.002;11.854;2023-08-12T05:30:56;3.83;;;3.20;;
46729;SDS011;32476;50.002;11.854;2023-08-12T05:33:22;3.10;;;2.70;;
46729;SDS011;32476;50.002;11.854;2023-08-12T05:35:49;4.23;;;2.63;;
46729;SDS011;32476;50.002;11.854;2023-08-12T05:38:17;2.80;;;2.50;;
46729;SDS011;32476;50.002;11.854;2023-08-12T05:40:42;4.60;;;3.00;;
46729;SDS011;32476;50.002;11.854;2023-08-12T05:43:08;524.05;;;271.92;;
46729;SDS011;32476;50.002;11.854;2023-08-12T05:45:36;1999.90;;;999.90;;
46729;SDS011;32476;50.002;11.854;2023-08-12T05:48:02;1999.90;;;999.90;;
46729;SDS011;32476;50.002;11.854;2023-08-12T05:50:29;1999.90;;;999.90;;
46729;SDS011;32476;50.002;11.854;2023-08-12T05:52:56;6.15;;;4.05;;
46729;SDS011;32476;50.002;11.854;2023-08-12T05:55:22;45.63;;;10.57;;
46729;SDS011;32476;50.002;11.854;2023-08-12T05:57:48;7.18;;;6.57;;
46729;SDS011;32476;50.002;11.854;2023-08-12T06:00:15;7.53;;;6.53;;
46729;SDS011;32476;50.002;11.854;2023-08-12T06:02:43;10.30;;;9.63;;
46729;SDS011;32476;50.002;11.854;2023-08-12T06:05:09;12.77;;;11.98;;
46729;SDS011;32476;50.002;11.854;2023-08-12T06:07:36;10.63;;;9.93;;
46729;SDS011;32476;50.002;11.854;2023-08-12T06:10:02;19.50;;;18.17;;
46729;SDS011;32476;50.002;11.854;2023-08-12T06:12:29;29.27;;;27.40;;
46729;SDS011;32476;50.002;11.854;2023-08-12T06:14:57;33.33;;;31.42;;
46729;SDS011;32476;50.002;11.854;2023-08-12T06:17:23;33.55;;;31.85;;
46729;SDS011;32476;50.002;11.854;2023-08-12T06:19:49;32.03;;;30.08;;
46729;SDS011;32476;50.002;11.854;2023-08-12T06:22:16;32.90;;;30.90;;
46729;SDS011;32476;50.002;11.854;2023-08-12T06:24:42;37.35;;;35.35;;
46729;SDS011;32476;50.002;11.854;2023-08-12T06:27:08;33.80;;;31.83;;
46729;SDS011;32476;50.002;11.854;2023-08-12T06:29:36;121.70;;;17.48;;
46729;SDS011;32476;50.002;11.854;2023-08-12T06:32:02;1999.90;;;999.90;;
46729;SDS011;32476;50.002;11.854;2023-08-12T06:34:28;1999.90;;;999.90;;
46729;SDS011;32476;50.002;11.854;2023-08-12T06:36:55;1999.90;;;999.90;;
46729;SDS011;32476;50.002;11.854;2023-08-12T06:39:21;1999.90;;;999.90;;
46729;SDS011;32476;50.002;11.854;2023-08-12T06:41:47;1999.90;;;999.90;;
46729;SDS011;32476;50.002;11.854;2023-08-12T06:44:14;1999.90;;;999.90;;
46729;SDS011;32476;50.002;11.854;2023-08-12T06:46:40;1999.90;;;999.90;;
46729;SDS011;32476;50.002;11.854;2023-08-12T06:49:07;1999.90;;;999.90;;
46729;SDS011;32476;50.002;11.854;2023-08-12T06:51:34;1999.90;;;999.90;;
46729;SDS011;32476;50.002;11.854;2023-08-12T06:54:00;1999.90;;;999.90;;
46729;SDS011;32476;50.002;11.854;2023-08-12T06:56:26;1999.90;;;999.90;;
46729;SDS011;32476;50.002;11.854;2023-08-12T06:58:53;1999.90;;;999.90;;
46729;SDS011;32476;50.002;11.854;2023-08-12T07:01:19;1999.90;;;999.90;;
46729;SDS011;32476;50.002;11.854;2023-08-12T07:03:45;1999.90;;;999.90;;
46729;SDS011;32476;50.002;11.854;2023-08-12T07:06:12;1999.90;;;999.90;;
46729;SDS011;32476;50.002;11.854;2023-08-12T07:08:38;1999.90;;;999.90;;
46729;SDS011;32476;50.002;11.854;2023-08-12T07:11:04;1999.90;;;999.90;;
46729;SDS011;32476;50.002;11.854;2023-08-12T07:13:32;1999.90;;;999.90;;
46729;SDS011;32476;50.002;11.854;2023-08-12T07:15:58;1999.90;;;999.90;;
46729;SDS011;32476;50.002;11.854;2023-08-12T07:18:24;1999.90;;;999.90;;
46729;SDS011;32476;50.002;11.854;2023-08-12T07:20:52;1999.90;;;999.90;;
46729;SDS011;32476;50.002;11.854;2023-08-12T07:23:18;1999.90;;;999.90;;
46729;SDS011;32476;50.002;11.854;2023-08-12T07:25:45;1999.90;;;999.90;;
46729;SDS011;32476;50.002;11.854;2023-08-12T07:28:13;1999.90;;;999.90;;
46729;SDS011;32476;50.002;11.854;2023-08-12T07:30:39;1999.90;;;999.90;;
46729;SDS011;32476;50.002;11.854;2023-08-12T07:33:06;1999.90;;;999.90;;
46729;SDS011;32476;50.002;11.854;2023-08-12T07:35:34;1999.90;;;999.90;;
46729;SDS011;32476;50.002;11.854;2023-08-12T07:38:00;1999.90;;;999.90;;
46729;SDS011;32476;50.002;11.854;2023-08-12T07:40:26;1999.90;;;999.90;;
46729;SDS011;32476;50.002;11.854;2023-08-12T07:42:53;1999.90;;;999.90;;
46729;SDS011;32476;50.002;11.854;2023-08-12T07:45:19;1999.90;;;999.90;;
46729;SDS011;32476;50.002;11.854;2023-08-12T07:47:47;1999.90;;;999.90;;
46729;SDS011;32476;50.002;11.854;2023-08-12T07:50:16;1999.90;;;999.90;;
46729;SDS011;32476;50.002;11.854;2023-08-12T07:52:43;1999.90;;;999.90;;
46729;SDS011;32476;50.002;11.854;2023-08-12T07:55:09;1999.90;;;999.90;;
46729;SDS011;32476;50.002;11.854;2023-08-12T07:57:36;1999.90;;;999.90;;
46729;SDS011;32476;50.002;11.854;2023-08-12T08:00:02;1999.90;;;999.90;;
46729;SDS011;32476;50.002;11.854;2023-08-12T08:02:29;1999.90;;;999.90;;
46729;SDS011;32476;50.002;11.854;2023-08-12T08:04:56;1999.90;;;999.90;;
46729;SDS011;32476;50.002;11.854;2023-08-12T08:07:22;1999.90;;;999.90;;
46729;SDS011;32476;50.002;11.854;2023-08-12T08:09:48;1999.90;;;999.90;;
46729;SDS011;32476;50.002;11.854;2023-08-12T08:12:19;1999.90;;;999.90;;
46729;SDS011;32476;50.002;11.854;2023-08-12T08:14:45;1999.90;;;999.90;;
46729;SDS011;32476;50.002;11.854;2023-08-12T08:17:11;1999.90;;;999.90;;
46729;SDS011;32476;50.002;11.854;2023-08-12T08:23:57;1999.90;;;999.90;;
46729;SDS011;32476;50.002;11.854;2023-08-12T08:26:25;1999.90;;;999.90;;
46729;SDS011;32476;50.002;11.854;2023-08-12T08:28:52;1999.90;;;999.90;;
46729;SDS011;32476;50.002;11.854;2023-08-12T08:31:17;1999.90;;;999.90;;
46729;SDS011;32476;50.002;11.854;2023-08-12T08:33:46;1999.90;;;999.90;;
46729;SDS011;32476;50.002;11.854;2023-08-12T08:36:12;1999.90;;;999.90;;
46729;SDS011;32476;50.002;11.854;2023-08-12T08:38:37;1999.90;;;999.90;;
46729;SDS011;32476;50.002;11.854;2023-08-12T08:41:05;1999.90;;;999.90;;
46729;SDS011;32476;50.002;11.854;2023-08-12T08:43:35;1999.90;;;999.90;;
46729;SDS011;32476;50.002;11.854;2023-08-12T08:46:02;1999.90;;;999.90;;
46729;SDS011;32476;50.002;11.854;2023-08-12T08:48:29;1999.90;;;999.90;;
46729;SDS011;32476;50.002;11.854;2023-08-12T08:50:55;1999.90;;;999.90;;
46729;SDS011;32476;50.002;11.854;2023-08-12T08:53:22;1999.90;;;999.90;;
46729;SDS011;32476;50.002;11.854;2023-08-12T08:55:49;1999.90;;;999.90;;
46729;SDS011;32476;50.002;11.854;2023-08-12T08:58:18;1999.90;;;999.90;;
46729;SDS011;32476;50.002;11.854;2023-08-12T09:00:44;1999.90;;;999.90;;
46729;SDS011;32476;50.002;11.854;2023-08-12T09:03:12;1999.90;;;999.90;;
46729;SDS011;32476;50.002;11.854;2023-08-12T09:05:39;1999.90;;;999.90;;
46729;SDS011;32476;50.002;11.854;2023-08-12T09:08:08;1999.90;;;999.90;;
46729;SDS011;32476;50.002;11.854;2023-08-12T09:10:38;1999.90;;;999.90;;
46729;SDS011;32476;50.002;11.854;2023-08-12T09:13:06;1999.90;;;999.90;;
46729;SDS011;32476;50.002;11.854;2023-08-12T09:15:32;1999.90;;;999.90;;
46729;SDS011;32476;50.002;11.854;2023-08-12T09:17:59;1999.90;;;999.90;;
46729;SDS011;32476;50.002;11.854;2023-08-12T09:20:25;1999.90;;;999.90;;
46729;SDS011;32476;50.002;11.854;2023-08-12T09:22:56;1999.90;;;999.90;;
46729;SDS011;32476;50.002;11.854;2023-08-12T09:25:26;1999.90;;;999.90;;
46729;SDS011;32476;50.002;11.854;2023-08-12T09:27:53;1999.90;;;999.90;;
46729;SDS011;32476;50.002;11.854;2023-08-12T09:30:21;1999.90;;;999.90;;
46729;SDS011;32476;50.002;11.854;2023-08-12T09:32:59;1999.90;;;999.90;;
46729;SDS011;32476;50.002;11.854;2023-08-12T09:35:35;1999.90;;;999.90;;
46729;SDS011;32476;50.002;11.854;2023-08-12T09:38:06;1512.63;;;755.35;;
46729;SDS011;32476;50.002;11.854;2023-08-12T09:40:36;4.85;;;3.38;;
46729;SDS011;32476;50.002;11.854;2023-08-12T09:43:02;1999.90;;;999.90;;
46729;SDS011;32476;50.002;11.854;2023-08-12T09:45:30;1999.90;;;999.90;;
46729;SDS011;32476;50.002;11.854;2023-08-12T09:47:57;1999.90;;;999.90;;
46729;SDS011;32476;50.002;11.854;2023-08-12T09:50:24;1999.90;;;999.90;;
46729;SDS011;32476;50.002;11.854;2023-08-12T09:52:53;1999.90;;;999.90;;
46729;SDS011;32476;50.002;11.854;2023-08-12T09:55:21;1999.90;;;999.90;;
46729;SDS011;32476;50.002;11.854;2023-08-12T09:57:53;1999.90;;;999.90;;
46729;SDS011;32476;50.002;11.854;2023-08-12T10:00:22;1999.90;;;999.90;;
46729;SDS011;32476;50.002;11.854;2023-08-12T10:02:50;1999.90;;;999.90;;
46729;SDS011;32476;50.002;11.854;2023-08-12T10:05:22;4.75;;;2.88;;
46729;SDS011;32476;50.002;11.854;2023-08-12T10:08:00;6.50;;;3.42;;
46729;SDS011;32476;50.002;11.854;2023-08-12T10:10:30;4.50;;;3.35;;
46729;SDS011;32476;50.002;11.854;2023-08-12T10:13:01;2.90;;;2.58;;
46729;SDS011;32476;50.002;11.854;2023-08-12T10:15:29;3.20;;;2.50;;
46729;SDS011;32476;50.002;11.854;2023-08-12T10:17:56;5.47;;;2.55;;
46729;SDS011;32476;50.002;11.854;2023-08-12T10:20:24;2.90;;;2.60;;
46729;SDS011;32476;50.002;11.854;2023-08-12T10:22:50;7.07;;;2.83;;
46729;SDS011;32476;50.002;11.854;2023-08-12T10:25:20;4.82;;;2.50;;
46729;SDS011;32476;50.002;11.854;2023-08-12T10:27:51;3.40;;;2.10;;
46729;SDS011;32476;50.002;11.854;2023-08-12T10:30:17;135.43;;;34.45;;
46729;SDS011;32476;50.002;11.854;2023-08-12T10:32:43;2.50;;;2.30;;
46729;SDS011;32476;50.002;11.854;2023-08-12T10:35:10;3.05;;;2.30;;
46729;SDS011;32476;50.002;11.854;2023-08-12T10:37:38;2.50;;;2.30;;
46729;SDS011;32476;50.002;11.854;2023-08-12T10:40:05;3.08;;;1.88;;
46729;SDS011;32476;50.002;11.854;2023-08-12T10:42:47;2.53;;;2.28;;
46729;SDS011;32476;50.002;11.854;2023-08-12T10:45:16;2.70;;;2.50;;
46729;SDS011;32476;50.002;11.854;2023-08-12T10:47:43;3.78;;;2.25;;
46729;SDS011;32476;50.002;11.854;2023-08-12T10:50:54;6.30;;;4.65;;
46729;SDS011;32476;50.002;11.854;2023-08-12T10:53:27;4.40;;;2.35;;
46729;SDS011;32476;50.002;11.854;2023-08-12T10:56:01;2.67;;;2.15;;
46729;SDS011;32476;50.002;11.854;2023-08-12T10:58:30;2.65;;;1.98;;
46729;SDS011;32476;50.002;11.854;2023-08-12T11:01:13;1999.90;;;999.90;;
46729;SDS011;32476;50.002;11.854;2023-08-12T11:03:43;650.90;;;319.65;;
46729;SDS011;32476;50.002;11.854;2023-08-12T11:06:11;160.95;;;53.22;;
46729;SDS011;32476;50.002;11.854;2023-08-12T11:08:47;1522.35;;;757.80;;
46729;SDS011;32476;50.002;11.854;2023-08-12T11:11:19;1999.90;;;999.90;;
46729;SDS011;32476;50.002;11.854;2023-08-12T11:13:58;31.75;;;5.55;;
46729;SDS011;32476;50.002;11.854;2023-08-12T11:16:36;4.20;;;1.73;;
46729;SDS011;32476;50.002;11.854;2023-08-12T11:19:03;5.35;;;1.55;;
46729;SDS011;32476;50.002;11.854;2023-08-12T11:21:31;3.53;;;1.58;;
46729;SDS011;32476;50.002;11.854;2023-08-12T11:24:01;2.55;;;2.03;;
46729;SDS011;32476;50.002;11.854;2023-08-12T11:26:28;3.58;;;1.60;;
46729;SDS011;32476;50.002;11.854;2023-08-12T11:28:57;1.60;;;1.50;;
46729;SDS011;32476;50.002;11.854;2023-08-12T11:31:22;3.03;;;1.70;;
46729;SDS011;32476;50.002;11.854;2023-08-12T11:33:49;4.15;;;1.63;;
46729;SDS011;32476;50.002;11.854;2023-08-12T11:36:16;3.05;;;1.73;;
46729;SDS011;32476;50.002;11.854;2023-08-12T11:38:42;3.60;;;2.08;;
46729;SDS011;32476;50.002;11.854;2023-08-12T11:41:08;4.05;;;1.83;;
46729;SDS011;32476;50.002;11.854;2023-08-12T11:43:35;3.30;;;1.85;;
46729;SDS011;32476;50.002;11.854;2023-08-12T11:46:01;4.50;;;2.00;;
46729;SDS011;32476;50.002;11.854;2023-08-12T11:48:27;3.20;;;1.80;;
46729;SDS011;32476;50.002;11.854;2023-08-12T11:50:55;5.93;;;1.90;;
46729;SDS011;32476;50.002;11.854;2023-08-12T11:53:21;2.38;;;1.60;;
46729;SDS011;32476;50.002;11.854;2023-08-12T11:55:48;2.67;;;1.60;;
46729;SDS011;32476;50.002;11.854;2023-08-12T11:58:15;6.30;;;2.17;;
46729;SDS011;32476;50.002;11.854;2023-08-12T12:00:44;2.70;;;2.10;;
46729;SDS011;32476;50.002;11.854;2023-08-12T12:03:12;2.95;;;1.80;;
46729;SDS011;32476;50.002;11.854;2023-08-12T12:05:39;4.07;;;1.80;;
46729;SDS011;32476;50.002;11.854;2023-08-12T12:08:06;3.28;;;1.63;;
46729;SDS011;32476;50.002;11.854;2023-08-12T12:10:34;3.28;;;2.05;;
46729;SDS011;32476;50.002;11.854;2023-08-12T12:13:03;3.58;;;1.90;;
46729;SDS011;32476;50.002;11.854;2023-08-12T12:15:29;4.32;;;1.63;;
46729;SDS011;32476;50.002;11.854;2023-08-12T12:17:58;3.17;;;1.60;;
46729;SDS011;32476;50.002;11.854;2023-08-12T12:20:25;2.22;;;1.80;;
46729;SDS011;32476;50.002;11.854;2023-08-12T12:22:52;2.92;;;1.77;;
46729;SDS011;32476;50.002;11.854;2023-08-12T12:25:18;2.42;;;1.67;;
46729;SDS011;32476;50.002;11.854;2023-08-12T12:27:46;2.90;;;1.85;;
46729;SDS011;32476;50.002;11.854;2023-08-12T12:30:13;3.00;;;1.60;;
46729;SDS011;32476;50.002;11.854;2023-08-12T12:32:40;2.67;;;1.83;;
46729;SDS011;32476;50.002;11.854;2023-08-12T12:35:07;2.42;;;2.08;;
46729;SDS011;32476;50.002;11.854;2023-08-12T12:37:34;2.20;;;1.80;;
46729;SDS011;32476;50.002;11.854;2023-08-12T12:40:01;2.28;;;1.98;;
46729;SDS011;32476;50.002;11.854;2023-08-12T12:42:30;3.10;;;2.10;;
46729;SDS011;32476;50.002;11.854;2023-08-12T12:44:56;3.38;;;2.20;;
46729;SDS011;32476;50.002;11.854;2023-08-12T12:47:21;3.60;;;1.70;;
46729;SDS011;32476;50.002;11.854;2023-08-12T12:49:49;4.70;;;2.30;;
46729;SDS011;32476;50.002;11.854;2023-08-12T12:52:15;2.95;;;1.85;;
46729;SDS011;32476;50.002;11.854;2023-08-12T12:54:41;2.47;;;2.05;;
46729;SDS011;32476;50.002;11.854;2023-08-12T12:57:08;2.33;;;1.75;;
46729;SDS011;32476;50.002;11.854;2023-08-12T12:59:34;2.00;;;1.80;;
46729;SDS011;32476;50.002;11.854;2023-08-12T13:02:00;2.97;;;2.13;;
46729;SDS011;32476;50.002;11.854;2023-08-12T13:04:28;3.22;;;1.88;;
46729;SDS011;32476;50.002;11.854;2023-08-12T13:06:53;3.92;;;1.85;;
46729;SDS011;32476;50.002;11.854;2023-08-12T13:09:20;2.53;;;1.88;;
46729;SDS011;32476;50.002;11.854;2023-08-12T13:11:47;3.28;;;1.90;;
46729;SDS011;32476;50.002;11.854;2023-08-12T13:14:13;2.80;;;1.85;;
46729;SDS011;32476;50.002;11.854;2023-08-12T13:16:42;2.85;;;1.92;;
46729;SDS011;32476;50.002;11.854;2023-08-12T13:19:09;2.70;;;1.67;;
46729;SDS011;32476;50.002;11.854;2023-08-12T13:21:35;6.05;;;2.33;;
46729;SDS011;32476;50.002;11.854;2023-08-12T13:24:01;2.80;;;1.90;;
46729;SDS011;32476;50.002;11.854;2023-08-12T13:26:30;6.18;;;2.10;;
46729;SDS011;32476;50.002;11.854;2023-08-12T13:28:56;4.93;;;1.92;;
46729;SDS011;32476;50.002;11.854;2023-08-12T13:31:22;3.13;;;2.08;;
46729;SDS011;32476;50.002;11.854;2023-08-12T13:33:50;3.10;;;1.77;;
46729;SDS011;32476;50.002;11.854;2023-08-12T13:36:16;3.60;;;2.08;;
46729;SDS011;32476;50.002;11.854;2023-08-12T13:38:42;4.78;;;2.00;;
46729;SDS011;32476;50.002;11.854;2023-08-12T13:41:09;2.53;;;2.15;;
46729;SDS011;32476;50.002;11.854;2023-08-12T13:43:35;3.97;;;1.83;;
46729;SDS011;32476;50.002;11.854;2023-08-12T13:46:01;4.13;;;1.83;;
46729;SDS011;32476;50.002;11.854;2023-08-12T13:48:29;4.82;;;2.15;;
46729;SDS011;32476;50.002;11.854;2023-08-12T13:50:55;4.85;;;2.10;;
46729;SDS011;32476;50.002;11.854;2023-08-12T13:53:22;2.35;;;1.95;;
46729;SDS011;32476;50.002;11.854;2023-08-12T13:55:50;2.25;;;1.83;;
46729;SDS011;32476;50.002;11.854;2023-08-12T13:58:16;5.30;;;1.90;;
46729;SDS011;32476;50.002;11.854;2023-08-12T14:00:42;4.50;;;2.38;;
46729;SDS011;32476;50.002;11.854;2023-08-12T14:03:10;4.32;;;1.80;;
46729;SDS011;32476;50.002;11.854;2023-08-12T14:05:36;3.92;;;1.98;;
46729;SDS011;32476;50.002;11.854;2023-08-12T14:08:02;2.75;;;2.00;;
46729;SDS011;32476;50.002;11.854;2023-08-12T14:10:29;2.90;;;2.03;;
46729;SDS011;32476;50.002;11.854;2023-08-12T14:12:55;4.05;;;2.10;;
46729;SDS011;32476;50.002;11.854;2023-08-12T14:15:21;4.55;;;2.05;;
46729;SDS011;32476;50.002;11.854;2023-08-12T14:17:49;6.25;;;2.00;;
46729;SDS011;32476;50.002;11.854;2023-08-12T14:20:15;6.18;;;2.15;;
46729;SDS011;32476;50.002;11.854;2023-08-12T14:22:41;4.45;;;2.28;;
46729;SDS011;32476;50.002;11.854;2023-08-12T14:25:10;3.67;;;2.10;;
46729;SDS011;32476;50.002;11.854;2023-08-12T14:27:36;7.55;;;1.70;;